Date,TemperatureHighF,TemperatureAvgF,TemperatureLowF,DewpointHighF,DewpointAvgF,DewpointLowF,HumidityHigh,HumidityAvg,HumidityLow,PressureMaxIn,PressureMinIn,WindSpeedMaxMPH,WindSpeedAvgMPH,GustSpeedMaxMPH,PrecipitationSumIn
2013-1-1,14.5,11.4,7.0,5.0,-0.7,-4.0,88,59,47,30.41,30.26,14,3,23,0.00
2013-1-2,15.5,11.1,1.2,3.0,-0.3,-5.0,76,61,49,30.55,30.38,11,2,18,0.00
2013-1-3,28.2,10.6,-3.4,1.0,-5.2,-11.0,77,54,18,30.66,30.54,4,0,7,0.00
2013-1-4,37.4,18.8,7.2,13.0,6.6,0.0,81,62,32,30.58,30.28,2,0,6,0.00
2013-1-5,30.3,22.4,9.0,5.0,0.1,-6.0,73,40,25,30.46,30.27,11,2,16,0.00
2013-1-6,44.3,27.2,9.1,8.0,-3.5,-16.0,49,29,8,30.44,30.05,4,0,11,0.00
2013-1-7,41.4,33.8,25.0,5.0,-4.8,-14.0,41,20,9,30.05,29.78,11,2,22,0.00
2013-1-8,32.5,29.4,25.7,17.0,11.3,-8.0,61,49,17,30.27,29.77,17,3,34,0.00
2013-1-9,47.8,33.9,24.3,16.0,10.9,4.0,63,41,19,30.35,30.01,6,1,13,0.00
2013-1-10,44.2,28.6,18.6,17.0,8.3,3.0,64,45,18,30.01,29.50,2,0,8,0.00
2013-1-11,22.4,15.1,6.1,19.0,2.7,-7.0,87,59,34,29.86,29.28,19,5,34,0.00
2013-1-12,10.5,2.3,-9.3,-2.0,-9.5,-14.0,85,60,37,30.28,29.88,13,2,20,0.00
2013-1-13,4.3,-3.0,-13.0,-3.0,-7.7,-18.0,85,80,70,30.51,30.28,7,1,9,0.00
2013-1-14,9.0,-2.7,-16.0,-1.0,-12.1,-20.0,86,66,46,30.61,30.47,7,1,22,0.00
2013-1-15,23.9,12.3,0.5,8.0,-3.5,-17.0,59,49,41,30.51,30.44,14,3,25,0.00
2013-1-16,33.6,26.4,18.4,17.0,14.0,6.0,72,60,50,30.49,30.35,8,2,22,0.00
2013-1-17,39.8,26.3,11.0,15.0,9.1,4.0,81,52,28,30.59,30.35,8,1,15,0.00
2013-1-18,37.9,33.7,31.1,7.0,2.7,-1.0,36,27,22,30.34,30.09,18,4,34,0.00
2013-1-19,38.9,32.9,28.3,5.0,2.3,-1.0,34,27,21,30.28,30.02,21,5,35,0.00
2013-1-20,36.8,31.5,23.3,9.0,2.1,-2.0,54,29,22,30.25,30.08,9,2,46,0.00
2013-1-21,35.3,31.3,26.7,10.0,3.7,-4.0,38,31,20,30.21,30.10,19,5,32,0.00
2013-1-22,42.3,38.7,34.0,-3.0,-9.1,-22.0,20,13,6,30.19,29.98,20,8,43,0.00
2013-1-23,51.8,38.6,28.6,17.0,0.1,-24.0,42,23,5,30.22,30.04,19,2,31,0.00
2013-1-24,44.9,38.5,29.1,27.0,12.2,-2.0,68,38,16,30.10,29.82,24,5,37,0.00
2013-1-25,43.1,37.9,34.7,28.0,25.6,23.0,72,62,51,30.07,29.96,14,4,29,0.00
2013-1-26,45.3,37.2,27.4,30.0,24.7,21.0,94,63,38,29.95,29.62,10,1,25,0.00
2013-1-27,40.6,32.4,20.8,29.0,23.5,15.0,95,72,45,29.76,29.59,11,1,35,0.02
2013-1-28,43.5,28.1,18.4,24.0,16.8,12.0,92,65,28,29.71,29.52,10,1,16,0.00
2013-1-29,18.2,11.0,1.8,14.0,0.8,-4.0,83,64,42,30.15,29.63,11,2,26,0.00
2013-1-30,22.7,15.6,4.4,17.0,7.4,-4.0,83,70,58,30.16,30.01,27,10,39,0.00
2013-1-31,28.3,24.8,21.3,19.0,15.8,12.0,87,69,51,30.24,30.00,26,10,41,0.00
2013-2-1,28.4,26.2,23.4,21.0,16.8,12.0,85,68,55,30.18,30.05,29,9,42,0.00
2013-2-2,35.5,29.8,25.1,17.0,10.9,6.0,70,47,31,30.38,30.16,21,6,44,0.00
2013-2-3,41.7,33.5,25.8,9.0,0.2,-13.0,46,26,10,30.28,29.90,14,2,24,0.00
2013-2-4,35.9,31.3,27.2,12.0,5.4,-1.0,46,34,26,29.98,29.84,13,5,34,0.00
2013-2-5,44.6,34.5,28.0,23.0,17.5,12.0,69,51,39,30.06,29.84,15,4,31,0.00
2013-2-6,38.9,32.1,24.6,25.0,19.1,13.0,85,60,43,30.04,29.78,10,2,17,0.00
2013-2-7,35.6,24.6,11.9,15.0,3.7,-8.0,81,44,16,30.18,30.03,13,2,19,0.00
2013-2-8,38.6,24.0,10.8,16.0,3.0,-3.0,76,44,18,30.14,29.83,6,1,11,0.00
2013-2-9,25.9,21.4,14.6,21.0,15.5,8.0,91,78,54,29.82,29.54,6,1,12,0.00
2013-2-10,20.3,16.4,10.0,14.0,8.9,4.0,88,73,51,30.15,29.62,11,2,25,0.00
2013-2-11,17.5,8.7,-3.3,13.0,4.6,-7.0,89,83,67,30.32,30.15,6,1,8,0.00
2013-2-12,24.1,16.5,5.8,5.0,0.4,-8.0,79,50,32,30.34,30.23,18,3,20,0.00
2013-2-13,27.0,22.7,17.7,14.0,10.0,6.0,64,59,52,30.27,30.04,25,6,37,0.00
2013-2-14,28.3,18.9,11.3,16.0,11.5,8.0,91,74,46,30.33,30.03,12,3,26,0.00
2013-2-15,23.2,18.5,9.4,13.0,9.9,7.0,91,70,50,30.52,30.32,23,4,45,0.00
2013-2-16,35.3,28.9,21.9,15.0,11.0,6.0,68,48,34,30.43,30.07,25,8,38,0.00
2013-2-17,41.7,32.3,19.9,16.0,4.2,-5.0,72,33,17,30.06,29.57,31,4,31,0.00
2013-2-18,22.0,17.4,4.6,11.0,3.7,-4.0,72,56,34,30.20,29.66,19,3,29,0.00
2013-2-19,37.4,22.6,4.7,9.0,-1.1,-18.0,70,40,9,30.21,29.86,6,1,10,0.00
2013-2-20,31.6,20.2,14.1,16.0,10.3,5.0,91,68,35,29.86,29.65,8,1,11,0.00
2013-2-21,19.7,14.6,8.5,15.0,11.4,6.0,91,87,75,30.02,29.71,8,1,12,0.00
2013-2-22,25.1,18.3,14.1,15.0,6.3,0.0,77,60,47,30.06,29.91,17,3,28,0.00
2013-2-23,34.1,23.2,14.6,19.0,10.2,1.0,89,59,46,29.96,29.71,20,5,40,0.00
2013-2-24,18.4,14.8,0.0,16.0,12.3,-3.0,91,89,86,30.24,29.74,7,1,14,0.00
2013-2-25,29.2,17.2,-0.7,17.0,7.8,-4.0,91,68,46,30.32,30.00,8,1,16,0.10
2013-2-26,25.1,18.9,9.1,18.0,13.8,7.0,91,81,53,30.23,29.86,9,1,19,0.00
2013-2-27,21.3,13.8,0.5,7.0,2.1,-6.0,91,62,40,30.48,30.24,9,1,24,0.00
2013-2-28,26.8,19.6,12.9,13.0,6.3,0.0,73,57,41,30.50,30.33,16,5,35,0.00
2013-3-1,32.0,27.2,18.6,22.0,16.4,10.0,71,64,54,30.45,30.36,13,4,34,0.01
2013-3-2,40.9,35.3,29.5,23.0,20.7,16.0,69,56,43,30.38,30.06,17,4,28,0.02
2013-3-3,44.1,38.1,26.7,28.0,20.4,15.0,77,51,37,30.05,29.53,38,6,44,0.00
2013-3-4,35.0,23.2,14.8,28.0,15.9,-2.0,93,75,46,30.24,29.58,12,3,33,0.01
2013-3-5,40.8,26.3,14.4,8.0,-1.3,-10.0,61,34,13,30.40,30.22,11,2,22,0.01
2013-3-6,48.3,36.0,19.7,17.0,9.6,1.0,58,35,18,30.22,29.81,7,1,13,0.01
2013-3-7,49.7,38.5,23.5,21.0,14.6,7.0,72,41,18,29.88,29.76,11,2,21,0.00
2013-3-8,44.9,30.3,20.7,26.0,19.1,11.0,95,66,36,29.90,29.65,6,1,9,0.00
2013-3-9,26.8,22.9,7.8,25.0,21.1,5.0,95,92,87,30.14,29.59,8,1,12,0.00
2013-3-10,33.8,22.0,2.5,21.0,12.7,0.0,94,69,50,30.29,30.14,10,2,26,0.22
2013-3-11,33.8,28.7,22.5,24.0,17.7,11.0,92,64,50,30.17,29.90,25,9,43,0.01
2013-3-12,37.5,27.8,17.3,24.0,19.5,15.0,92,74,50,30.29,30.11,22,2,34,0.01
2013-3-13,46.3,40.0,34.8,23.0,20.8,17.0,61,47,32,30.27,30.14,16,4,45,0.04
2013-3-14,52.6,43.3,36.3,24.0,19.4,11.0,58,40,20,30.21,30.06,16,2,26,0.00
2013-3-15,55.3,45.1,32.2,30.0,22.1,20.0,67,43,25,30.07,29.77,18,2,38,0.00
2013-3-16,43.9,37.1,29.3,30.0,26.4,21.0,84,66,48,29.79,29.66,8,2,24,0.00
2013-3-17,39.3,29.5,19.3,28.0,20.1,12.0,91,70,36,29.81,29.49,17,3,39,0.03
2013-3-18,29.5,23.1,17.3,17.0,11.3,4.0,81,61,47,30.08,29.82,16,4,23,0.00
2013-3-19,34.2,27.4,14.0,12.0,-0.5,-14.0,66,34,13,30.36,30.04,21,5,43,0.00
2013-3-20,45.1,30.3,9.6,24.0,10.7,-6.0,66,46,23,30.33,29.74,21,6,36,0.00
2013-3-21,41.8,31.9,23.1,28.0,19.4,8.0,84,61,40,29.79,29.41,32,6,37,0.00
2013-3-22,32.9,23.4,16.5,21.0,12.0,3.0,92,65,30,29.93,29.71,14,2,17,0.00
2013-3-23,16.3,9.6,3.0,14.0,6.5,0.0,90,87,82,30.38,29.90,7,2,11,0.00
2013-3-24,15.7,8.4,-4.8,9.0,3.0,-8.0,90,79,56,30.49,30.37,11,1,17,0.00
2013-3-25,26.3,15.4,4.6,14.0,5.3,1.0,88,66,34,30.48,30.39,6,1,15,0.00
2013-3-26,42.3,28.7,5.4,24.0,15.7,2.0,86,61,35,30.41,30.06,15,2,31,0.19
2013-3-27,45.3,32.9,21.8,28.0,22.9,19.0,94,70,36,30.10,29.99,14,1,26,0.01
2013-3-28,50.9,34.8,21.9,29.0,22.4,18.0,88,65,27,30.16,30.07,8,1,15,0.00
2013-3-29,49.0,37.5,25.9,30.0,25.9,22.0,87,65,39,30.14,30.01,15,3,26,0.00
2013-3-30,47.8,38.5,28.1,31.0,25.8,21.0,95,63,35,30.12,29.94,18,4,36,0.00
2013-3-31,50.7,38.7,24.2,29.0,18.9,10.0,95,51,19,30.10,29.95,26,2,34,0.00
2013-4-1,42.2,31.6,20.5,31.0,24.8,17.0,96,77,52,30.07,29.93,7,1,11,0.00
2013-4-2,35.0,30.1,28.6,32.0,28.9,28.0,96,95,85,30.12,30.00,4,0,6,0.02
2013-4-3,49.6,36.1,21.5,36.0,27.3,20.0,97,74,40,30.16,30.07,7,1,15,0.45
2013-4-4,52.7,42.7,34.0,27.0,23.8,17.0,71,49,24,30.12,29.91,11,2,22,0.00
2013-4-5,55.6,41.1,31.4,32.0,24.2,19.0,92,55,26,29.91,29.55,17,2,32,0.04
2013-4-6,49.8,39.4,30.6,29.0,23.1,19.0,83,54,35,29.83,29.73,22,3,27,0.01
2013-4-7,44.3,37.1,30.4,31.0,26.4,20.0,89,66,41,29.79,29.64,19,4,43,0.01
2013-4-8,52.6,35.8,23.5,31.0,25.1,20.0,94,69,29,29.68,29.37,10,2,22,0.01
2013-4-9,22.3,10.1,2.6,20.0,7.1,-1.0,93,87,82,30.31,29.61,6,2,9,0.00
2013-4-10,22.3,12.0,-4.8,17.0,7.2,-8.0,91,81,60,30.41,30.15,17,2,25,0.00
2013-4-11,38.5,30.2,21.3,30.0,23.1,12.0,93,75,57,30.14,29.88,13,3,32,0.13
2013-4-12,42.8,33.0,25.0,29.0,24.2,12.0,92,73,29,29.93,29.81,17,3,39,0.02
2013-4-13,51.1,37.9,22.2,32.0,19.1,12.0,94,51,27,29.90,29.39,30,4,41,0.00
2013-4-14,32.7,24.7,19.5,31.0,17.3,11.0,94,75,50,29.80,29.37,7,1,19,0.00
2013-4-15,25.3,21.0,16.4,23.0,18.1,14.0,92,88,71,30.05,29.77,4,0,10,0.00
2013-4-16,24.4,20.3,14.8,22.0,18.2,12.0,94,91,83,30.07,29.93,0,0,1,0.00
2013-4-17,22.0,16.4,5.2,19.0,14.2,2.0,94,91,86,30.26,29.97,0,0,0,0.00
2013-4-18,22.1,13.1,-0.7,10.0,4.5,-4.0,90,70,51,30.45,30.23,0,0,0,0.00
2013-4-19,37.3,28.1,18.5,24.0,15.3,9.0,82,59,48,30.39,30.04,15,4,29,0.01
2013-4-20,43.3,34.9,27.9,27.0,24.3,21.0,87,67,43,30.05,29.89,10,2,17,0.15
2013-4-21,45.7,37.5,31.3,27.0,20.6,16.0,82,52,34,30.03,29.90,19,3,23,0.00
2013-4-22,36.7,25.2,12.9,32.0,21.5,11.0,94,86,61,30.23,29.83,7,2,13,0.03
2013-4-23,22.6,16.0,10.1,18.0,12.4,8.0,90,85,74,30.41,30.20,0,0,0,0.00
2013-4-24,37.4,25.9,10.5,17.0,11.8,8.0,93,59,31,30.41,30.29,28,3,32,0.07
2013-4-25,52.0,37.2,20.0,24.0,14.0,5.0,75,43,19,30.29,29.92,10,2,21,0.01
2013-4-26,49.4,37.5,25.2,25.0,18.4,13.0,76,51,26,30.25,30.03,10,2,12,0.00
2013-4-27,54.5,42.2,25.9,23.0,19.3,14.0,77,44,21,30.24,30.03,14,2,23,0.00
2013-4-28,60.0,49.0,35.0,30.0,23.2,16.0,66,38,26,30.03,29.72,13,2,31,0.00
2013-4-29,62.7,50.4,31.7,33.0,25.7,19.0,87,43,20,29.80,29.45,13,2,26,0.00
2013-4-30,52.8,42.0,30.4,37.0,30.1,20.0,95,66,29,29.78,29.43,9,2,12,0.05
2013-5-1,30.3,21.6,12.2,29.0,19.6,10.0,95,91,88,30.67,29.79,3,0,5,0.00
2013-5-2,30.4,20.5,4.4,25.0,15.5,2.0,91,81,61,30.91,30.62,0,0,0,0.04
2013-5-3,47.6,36.9,25.2,31.0,22.6,12.0,88,58,25,30.62,30.09,8,1,12,0.66
2013-5-4,41.9,34.1,22.4,31.0,25.8,17.0,90,74,39,30.21,30.05,9,2,14,0.00
2013-5-5,44.7,34.8,24.2,33.0,27.2,22.0,95,76,51,30.21,30.06,7,1,9,0.01
2013-5-6,51.7,40.4,28.6,37.0,31.5,28.0,97,74,43,30.09,29.88,7,1,11,0.01
2013-5-7,55.7,43.5,30.7,38.0,31.3,25.0,92,66,32,29.89,29.77,11,3,21,0.00
2013-5-8,42.5,34.0,28.5,39.0,32.0,26.0,97,92,82,30.12,29.83,5,0,12,0.24
2013-5-9,44.3,35.2,29.9,40.0,33.6,29.0,97,94,78,30.21,30.09,3,0,13,1.14
2013-5-10,48.1,36.7,26.6,41.0,33.0,26.0,97,87,54,30.36,30.18,4,0,13,0.60
2013-5-11,55.5,41.2,29.3,38.0,32.2,26.0,97,74,37,30.41,30.19,11,1,15,0.02
2013-5-12,64.2,51.2,33.6,34.0,31.4,27.0,91,50,28,30.20,30.00,13,2,24,0.00
2013-5-13,70.1,58.6,40.7,37.0,32.8,29.0,74,41,22,30.01,29.82,12,2,16,0.00
2013-5-14,69.7,57.1,37.8,39.0,34.4,29.0,82,46,23,29.83,29.71,9,1,23,0.00
2013-5-15,65.9,51.5,38.9,42.0,36.9,32.0,93,61,31,29.74,29.67,9,2,14,0.02
2013-5-16,66.3,54.1,41.2,39.0,35.0,28.0,82,52,24,29.71,29.62,16,2,22,0.00
2013-5-17,70.5,55.0,34.1,35.0,23.9,8.0,83,39,9,29.72,29.58,10,2,19,0.00
2013-5-18,58.7,47.7,36.3,35.0,27.6,22.0,81,48,25,29.67,29.56,7,2,21,0.00
2013-5-19,51.6,44.2,38.6,31.0,28.9,26.0,69,56,39,29.72,29.60,14,4,29,0.00
2013-5-20,49.9,42.6,36.5,38.0,31.8,26.0,92,67,50,29.91,29.68,13,2,19,0.03
2013-5-21,54.6,43.0,31.6,31.0,26.6,20.0,83,54,31,29.92,29.80,16,4,24,0.00
2013-5-22,60.2,46.8,30.2,42.0,32.5,25.0,96,63,27,29.92,29.77,13,2,16,0.21
2013-5-23,54.5,46.9,38.6,47.0,43.4,38.0,97,88,75,29.92,29.80,7,2,11,0.00
2013-5-24,71.7,52.1,32.6,41.0,30.5,11.0,97,55,10,29.90,29.78,13,1,15,0.00
2013-5-25,71.6,54.9,32.8,38.0,22.3,6.0,82,39,8,29.84,29.70,8,2,17,0.00
2013-5-26,71.6,53.9,38.0,36.0,27.2,14.0,65,40,11,29.74,29.65,11,1,18,0.00
2013-5-27,66.7,53.2,38.3,33.0,22.9,16.0,66,35,15,29.70,29.55,13,2,22,0.00
2013-5-28,64.7,50.7,32.9,43.0,30.2,23.0,75,49,21,29.62,29.43,9,1,11,0.00
2013-5-29,51.0,43.4,35.5,38.0,33.0,28.0,92,68,45,29.58,29.36,19,3,25,0.16
2013-5-30,47.0,41.9,36.7,35.0,29.2,25.0,80,61,46,29.78,29.45,22,6,49,0.08
2013-5-31,53.2,45.8,37.5,25.0,19.1,13.0,55,37,21,29.89,29.64,26,7,57,0.01
2013-6-1,54.8,45.8,36.0,37.0,30.4,19.0,86,56,35,30.07,29.90,11,2,16,0.00
2013-6-2,69.9,51.8,28.1,39.0,29.7,21.0,95,52,16,30.07,29.70,12,2,21,0.00
2013-6-3,72.6,57.1,38.3,38.0,28.1,22.0,65,38,15,29.71,29.54,13,2,31,0.00
2013-6-4,60.1,48.2,33.1,49.0,38.3,22.0,95,70,45,29.98,29.68,10,2,12,0.15
2013-6-5,50.7,42.8,36.3,44.0,40.4,35.0,97,91,66,30.03,29.93,7,1,10,0.04
2013-6-6,62.3,49.6,31.6,42.0,35.3,31.0,97,63,35,30.04,29.92,10,2,12,0.00
2013-6-7,68.6,51.3,34.6,49.0,37.7,32.0,94,65,26,29.98,29.65,12,1,18,0.00
2013-6-8,65.7,55.3,41.1,48.0,41.0,35.0,89,61,36,29.80,29.54,12,2,19,0.01
2013-6-9,76.4,58.0,36.3,40.0,34.8,31.0,95,49,19,29.88,29.76,8,2,14,0.00
2013-6-10,81.4,62.8,45.0,47.0,35.1,26.0,67,42,13,29.77,29.60,6,1,17,0.00
2013-6-11,79.6,64.5,44.9,42.0,26.3,10.0,62,30,7,29.65,29.53,11,2,26,0.00
2013-6-12,74.0,63.2,41.7,45.0,31.1,19.0,55,32,19,29.79,29.61,11,2,25,0.00
2013-6-13,79.8,60.7,39.5,49.0,37.6,27.0,79,50,15,29.79,29.61,13,1,21,0.00
2013-6-14,75.5,58.3,40.9,45.0,36.0,27.0,80,49,18,29.74,29.63,9,1,14,0.00
2013-6-15,66.5,53.2,35.3,48.0,42.6,33.0,94,69,50,29.90,29.72,9,2,11,0.00
2013-6-16,66.4,53.3,38.5,44.0,37.4,33.0,90,58,31,29.98,29.87,6,1,14,0.00
2013-6-17,67.9,54.3,37.5,48.0,39.9,32.0,88,61,31,29.96,29.85,11,2,13,0.00
2013-6-18,68.7,55.2,37.6,50.0,42.8,36.0,95,67,35,29.92,29.66,7,1,12,0.00
2013-6-19,78.6,60.1,35.9,44.0,30.3,13.0,96,44,9,29.76,29.49,7,1,19,0.00
2013-6-20,71.0,57.4,38.2,39.0,28.4,21.0,61,36,19,29.71,29.56,9,1,13,0.00
2013-6-21,77.4,58.8,36.1,40.0,29.2,19.0,75,39,13,29.71,29.57,10,1,15,0.00
2013-6-22,68.8,55.4,36.3,47.0,33.9,25.0,82,48,21,29.72,29.54,10,1,11,0.00
2013-6-23,69.0,54.8,35.6,47.0,35.2,24.0,67,49,28,29.79,29.65,9,1,24,0.00
2013-6-24,73.7,58.9,36.3,44.0,28.6,20.0,88,40,15,29.73,29.56,7,1,15,0.00
2013-6-25,73.5,60.4,41.1,38.0,31.8,24.0,58,35,24,29.80,29.60,11,2,20,0.00
2013-6-26,80.8,63.7,41.1,46.0,35.5,32.0,74,40,19,29.86,29.77,9,1,17,0.00
2013-6-27,80.6,66.2,46.8,42.0,36.7,30.0,63,38,16,29.96,29.84,8,2,17,0.00
2013-6-28,82.1,63.5,45.3,55.0,45.2,31.0,96,57,16,29.96,29.82,13,1,19,0.20
2013-6-29,71.3,56.8,43.9,58.0,50.4,43.0,98,81,46,29.96,29.86,4,0,14,0.12
2013-6-30,69.4,55.3,46.8,56.0,50.3,43.0,96,85,41,30.00,29.87,6,0,14,0.09
2013-7-1,65.5,52.9,39.3,55.0,47.5,39.0,98,83,47,30.09,30.00,9,1,12,0.14
2013-7-2,66.3,53.7,38.9,56.0,46.1,38.0,98,79,40,30.07,29.93,8,1,14,0.18
2013-7-3,72.0,54.8,37.9,53.0,44.9,37.0,98,75,38,29.95,29.73,7,1,10,0.31
2013-7-4,74.0,57.0,42.6,55.0,47.4,41.0,96,75,34,29.81,29.72,10,1,12,0.05
2013-7-5,72.0,59.7,45.2,55.0,48.7,43.0,97,70,41,29.73,29.59,6,1,16,0.21
2013-7-6,73.9,60.5,47.7,53.0,48.4,45.0,98,69,37,29.73,29.64,12,1,18,0.07
2013-7-7,74.2,63.1,49.3,51.0,47.5,43.0,87,60,35,29.78,29.69,6,1,12,0.01
2013-7-8,76.0,63.1,49.2,51.0,45.8,41.0,89,56,28,29.84,29.73,10,1,19,0.04
2013-7-9,78.6,64.5,48.3,51.0,41.0,33.0,79,48,19,29.92,29.83,6,1,19,0.00
2013-7-10,75.4,61.0,43.2,53.0,45.9,39.0,87,61,33,29.93,29.76,12,1,15,0.00
2013-7-11,80.4,65.1,46.0,54.0,46.0,39.0,90,56,23,29.85,29.57,7,1,15,0.00
2013-7-12,75.6,61.0,52.8,61.0,50.6,45.0,97,72,38,29.77,29.57,7,0,14,1.15
2013-7-13,74.4,57.6,50.6,61.0,53.1,50.0,98,87,45,29.94,29.78,3,0,10,0.73
2013-7-14,66.7,56.2,47.1,58.0,53.1,47.0,98,90,61,29.98,29.88,8,0,12,0.51
2013-7-15,66.0,56.0,48.8,59.0,53.4,48.0,98,91,76,29.96,29.84,9,1,13,0.08
2013-7-16,67.2,56.2,41.5,52.0,47.3,41.0,98,75,50,29.98,29.88,8,2,11,0.00
2013-7-17,73.8,59.1,42.8,55.0,49.6,42.0,97,74,47,29.99,29.87,7,1,11,0.00
2013-7-18,75.9,60.8,51.6,57.0,51.2,47.0,98,74,40,29.89,29.75,10,1,13,0.33
2013-7-19,68.4,58.9,50.0,56.0,52.0,45.0,98,79,45,29.91,29.82,10,1,12,0.01
2013-7-20,75.8,58.8,41.7,55.0,46.9,40.0,94,69,35,29.84,29.69,6,1,12,0.00
2013-7-21,78.1,61.9,43.3,52.0,40.4,28.0,95,52,17,29.72,29.64,8,1,17,0.00
2013-7-22,79.9,63.5,47.1,51.0,35.9,17.0,69,43,10,29.75,29.68,9,1,19,0.00
2013-7-23,79.7,62.2,45.9,54.0,39.4,19.0,91,49,11,29.86,29.73,9,1,12,0.00
2013-7-24,69.0,57.0,48.5,60.0,51.8,47.0,96,84,59,29.92,29.75,7,1,10,0.18
2013-7-25,61.7,54.1,47.5,55.0,50.6,47.0,97,88,68,30.06,29.80,5,0,12,0.37
2013-7-26,68.8,56.3,41.8,55.0,46.3,41.0,98,73,39,30.09,29.95,10,1,11,0.01
2013-7-27,74.3,56.9,42.3,55.0,48.0,40.0,95,75,37,29.95,29.74,8,1,10,0.07
2013-7-28,64.2,54.8,48.4,56.0,52.0,48.0,98,91,63,29.80,29.65,4,0,11,0.08
2013-7-29,66.6,56.6,46.2,51.0,48.1,45.0,97,74,49,29.95,29.72,6,0,12,0.01
2013-7-30,72.2,59.1,43.6,50.0,45.1,42.0,96,63,37,30.02,29.93,8,1,20,0.00
2013-7-31,76.1,60.6,44.3,51.0,45.3,39.0,89,61,29,30.07,29.90,7,1,12,0.00
2013-8-1,75.4,62.2,43.6,52.0,46.0,41.0,95,60,29,29.96,29.72,4,0,10,0.00
2013-8-2,75.9,66.0,52.6,49.0,44.9,39.0,77,49,27,29.72,29.64,11,2,18,0.00
2013-8-3,75.7,59.5,47.5,58.0,48.1,43.0,96,70,35,29.97,29.72,9,1,14,0.15
2013-8-4,76.2,61.0,45.5,52.0,46.3,38.0,98,63,28,29.93,29.83,8,0,16,0.01
2013-8-5,73.6,59.0,48.9,53.0,46.2,42.0,92,65,37,29.82,29.74,5,1,12,0.09
2013-8-6,75.3,61.9,49.2,48.0,43.4,37.0,77,53,25,29.79,29.71,12,1,12,0.00
2013-8-7,64.9,54.0,42.8,50.0,44.1,38.0,90,71,43,29.82,29.76,5,0,9,0.00
2013-8-8,62.6,50.7,38.6,53.0,45.0,36.0,96,82,59,30.03,29.82,9,1,10,0.11
2013-8-9,63.2,49.0,40.0,52.0,45.4,39.0,98,89,53,30.09,29.98,6,0,12,0.39
2013-8-10,73.1,56.0,38.1,51.0,42.1,30.0,98,66,20,30.11,29.95,14,1,15,0.01
2013-8-11,66.8,55.4,45.6,49.0,44.1,40.0,92,68,39,29.99,29.90,7,1,12,0.00
2013-8-12,66.5,53.2,40.0,53.0,45.0,39.0,96,76,47,30.08,29.94,7,1,12,1.08
2013-8-13,60.5,50.6,41.2,53.0,47.1,40.0,98,88,64,30.08,29.96,5,0,7,0.26
2013-8-14,69.2,53.4,38.4,49.0,41.9,35.0,98,70,31,30.09,29.92,7,1,29,0.01
2013-8-15,73.1,56.6,39.1,47.0,39.3,33.0,90,58,24,30.01,29.89,6,0,16,0.00
2013-8-16,76.4,58.0,39.3,49.0,39.4,32.0,88,57,20,30.01,29.92,5,1,13,0.00
2013-8-17,78.6,60.6,42.7,48.0,38.6,30.0,83,51,17,29.98,29.79,5,0,15,0.00
2013-8-18,78.7,62.6,47.9,51.0,42.6,37.0,79,51,26,29.86,29.76,6,0,15,0.01
2013-8-19,76.7,63.4,47.0,50.0,42.8,37.0,80,51,26,29.85,29.76,6,1,11,0.00
2013-8-20,80.0,64.1,46.5,52.0,41.1,35.0,77,48,20,29.80,29.71,10,0,13,0.00
2013-8-21,75.7,62.2,48.8,52.0,46.5,41.0,86,59,32,29.85,29.74,7,0,11,0.03
2013-8-22,69.5,55.1,45.2,57.0,49.7,43.0,97,83,51,29.98,29.85,4,0,10,0.27
2013-8-23,73.2,55.6,46.6,60.0,52.0,46.0,98,89,40,30.00,29.79,2,0,7,0.44
2013-8-24,70.0,56.1,43.3,56.0,49.6,43.0,98,81,46,29.92,29.82,6,0,10,0.08
2013-8-25,71.7,57.3,44.9,59.0,50.0,44.0,98,80,41,29.94,29.87,8,0,10,0.07
2013-8-26,74.3,59.9,47.5,59.0,52.4,47.0,98,79,44,29.93,29.84,7,1,15,0.57
2013-8-27,74.5,60.5,46.8,60.0,52.4,46.0,98,78,49,29.91,29.80,8,1,12,0.01
2013-8-28,76.4,58.8,46.7,58.0,51.1,46.0,96,78,41,29.91,29.79,11,0,11,0.07
2013-8-29,76.4,60.6,46.4,57.0,48.0,44.0,92,67,35,29.99,29.89,5,1,11,0.00
2013-8-30,75.9,60.5,49.5,58.0,50.0,45.0,96,71,34,29.96,29.83,4,0,9,0.12
2013-8-31,73.6,59.0,47.4,58.0,49.6,44.0,96,74,35,29.90,29.79,4,0,12,0.05
2013-9-1,64.5,55.0,46.9,58.0,51.3,45.0,97,88,71,29.95,29.88,4,0,7,0.01
2013-9-2,75.6,59.5,44.1,56.0,48.9,42.0,94,72,40,29.95,29.80,6,0,10,0.01
2013-9-3,78.3,64.6,49.2,53.0,48.7,43.0,90,60,30,29.85,29.77,6,1,11,0.00
2013-9-4,76.6,61.3,49.9,56.0,49.2,45.0,87,68,35,29.95,29.82,4,0,10,0.00
2013-9-5,77.6,59.9,46.9,56.0,48.3,43.0,88,69,31,29.97,29.88,3,0,8,0.00
2013-9-6,77.6,61.5,49.2,55.0,48.4,43.0,88,65,31,29.92,29.79,6,0,11,0.07
2013-9-7,75.5,59.7,45.1,52.0,46.4,42.0,94,66,31,29.89,29.81,7,1,12,0.00
2013-9-8,72.5,56.1,43.3,59.0,48.2,41.0,95,78,38,29.82,29.65,5,0,8,0.20
2013-9-9,66.4,56.2,46.3,56.0,50.1,44.0,96,81,56,29.79,29.64,6,0,8,0.83
2013-9-10,55.5,52.0,50.5,54.0,51.2,50.0,98,97,93,29.98,29.76,3,0,5,0.62
2013-9-11,54.6,52.3,50.8,53.0,51.8,50.0,98,98,95,30.01,29.95,4,0,7,2.40
2013-9-12,55.6,51.8,49.6,54.0,51.3,49.0,99,98,93,30.07,29.97,6,0,6,2.01
2013-9-13,64.3,54.7,44.3,56.0,52.1,44.0,98,91,72,29.96,29.68,4,0,9,0.27
2013-9-14,63.9,49.6,41.7,54.0,47.7,42.0,99,93,56,29.89,29.73,1,0,6,0.22
2013-9-15,49.9,47.4,43.5,49.0,46.8,43.0,99,97,91,30.10,29.88,5,0,8,1.50
2013-9-16,62.6,49.5,40.9,54.0,46.3,40.0,99,90,63,30.08,29.89,4,0,6,0.00
2013-9-17,68.3,54.6,43.1,49.0,44.1,37.0,98,71,34,29.95,29.66,6,0,13,0.01
2013-9-18,67.1,50.9,40.1,49.0,44.0,39.0,97,80,41,29.79,29.61,5,0,13,0.22
2013-9-19,53.0,45.7,38.2,44.0,41.4,37.0,97,85,72,30.05,29.75,7,1,11,0.00
2013-9-20,63.6,44.1,29.2,44.0,35.4,22.0,98,77,20,30.09,29.95,7,1,9,0.00
2013-9-21,68.0,52.9,33.8,48.0,38.0,32.0,93,62,33,30.00,29.68,11,1,17,0.00
2013-9-22,62.8,48.4,38.0,49.0,41.5,35.0,96,79,47,29.69,29.43,4,0,9,0.15
2013-9-23,47.0,42.5,38.7,39.0,33.5,29.0,96,72,57,30.01,29.31,20,4,49,0.19
2013-9-24,62.1,50.6,38.8,38.0,28.7,17.0,72,46,21,30.03,29.70,7,1,17,0.00
2013-9-25,69.6,54.8,40.1,33.0,25.7,17.0,71,36,15,29.70,29.28,7,1,13,0.00
2013-9-26,55.7,45.1,31.1,43.0,36.6,27.0,96,74,39,29.64,29.34,9,1,9,0.00
2013-9-27,42.2,36.8,31.3,41.0,34.6,22.0,98,92,67,29.93,29.62,9,1,19,0.26
2013-9-28,49.1,39.3,31.4,33.0,23.7,15.0,73,55,39,30.17,29.87,15,3,33,0.00
2013-9-29,59.2,49.5,35.6,27.0,22.1,17.0,69,36,23,30.11,29.68,12,2,23,0.00
2013-9-30,66.8,56.8,48.4,35.0,27.5,21.0,47,33,27,29.77,29.59,15,2,30,0.00
2013-10-1,61.6,47.4,33.4,44.0,34.7,25.0,93,64,35,29.85,29.69,6,1,10,0.00
2013-10-2,64.3,47.1,33.2,39.0,32.1,22.0,93,62,20,29.90,29.77,10,1,12,0.00
2013-10-3,58.7,42.9,31.4,41.0,35.4,28.0,96,78,31,29.78,29.55,6,1,10,0.11
2013-10-4,39.7,30.1,23.5,39.0,25.8,15.0,96,84,69,30.14,29.58,8,1,21,0.29
2013-10-5,38.2,30.6,23.4,20.0,15.6,6.0,74,56,28,30.36,30.11,13,4,24,0.00
2013-10-6,54.3,44.2,35.2,33.0,25.0,12.0,63,48,37,30.34,30.13,6,1,17,0.01
2013-10-7,63.8,51.3,40.1,31.0,21.8,9.0,59,34,13,30.12,29.78,5,0,16,0.00
2013-10-8,65.2,52.3,37.0,33.0,23.8,15.0,74,37,19,29.77,29.53,10,2,13,0.00
2013-10-9,53.8,42.7,32.0,38.0,32.5,26.0,92,69,41,29.84,29.62,11,1,11,0.00
2013-10-10,52.9,39.5,31.3,41.0,32.1,24.0,95,76,49,29.83,29.37,18,2,34,0.00
2013-10-11,41.9,37.8,33.0,32.0,28.3,25.0,92,69,57,29.96,29.38,22,6,46,0.00
2013-10-12,46.4,35.2,26.3,36.0,29.3,22.0,95,81,39,30.13,29.97,9,1,13,0.02
2013-10-13,52.2,36.9,24.4,40.0,30.9,23.0,96,81,43,30.16,29.88,9,1,10,0.00
2013-10-14,40.6,34.7,29.4,33.0,28.3,24.0,96,78,56,30.09,29.69,11,2,29,0.01
2013-10-15,32.1,27.0,23.9,27.0,24.5,22.0,94,90,75,30.25,30.08,5,1,8,0.00
2013-10-16,38.6,31.5,22.7,24.0,20.3,17.0,95,66,45,30.23,30.08,13,3,27,0.01
2013-10-17,42.1,34.0,28.0,28.0,21.5,14.0,94,63,34,30.09,29.94,11,2,23,0.00
2013-10-18,32.7,28.0,21.5,27.0,19.5,14.0,94,73,50,30.20,29.96,14,2,29,0.08
2013-10-19,43.8,37.7,30.1,24.0,18.9,16.0,57,47,38,30.21,29.87,15,4,28,0.06
2013-10-20,41.5,35.3,23.4,31.0,24.0,19.0,95,67,42,30.05,29.82,9,1,23,0.00
2013-10-21,41.4,31.8,19.4,25.0,22.0,18.0,94,70,48,30.29,30.05,9,1,25,0.03
2013-10-22,51.2,43.1,35.6,29.0,25.2,22.0,64,50,37,30.25,30.01,12,3,21,0.00
2013-10-23,54.1,42.8,28.2,32.0,26.1,22.0,87,55,31,30.11,29.97,9,1,21,0.00
2013-10-24,54.8,38.5,25.4,29.0,25.2,18.0,91,64,24,30.21,30.11,6,1,12,0.00
2013-10-25,55.9,40.8,28.4,36.0,26.1,19.0,82,60,26,30.21,30.05,10,1,12,0.00
2013-10-26,50.0,36.5,24.8,32.0,26.3,22.0,90,69,42,30.28,30.17,15,1,19,0.03
2013-10-27,52.0,43.8,31.7,26.0,22.8,20.0,69,45,31,30.16,29.77,13,2,23,0.00
2013-10-28,31.2,28.0,24.8,29.0,24.8,21.0,96,88,70,30.00,29.78,6,1,7,0.00
2013-10-29,47.8,30.0,19.6,33.0,24.9,18.0,96,84,34,30.05,29.85,9,1,17,0.00
2013-10-30,36.7,31.2,27.5,30.0,22.3,17.0,96,71,51,29.86,29.76,10,2,23,0.11
2013-10-31,33.5,29.9,25.9,24.0,18.9,14.0,79,64,52,29.99,29.79,16,6,35,0.00
2013-11-1,35.2,32.6,30.1,26.0,21.0,17.0,81,63,49,30.23,29.95,18,3,29,0.00
2013-11-2,49.8,42.2,32.0,19.0,11.4,-4.0,60,31,11,30.22,29.65,14,3,26,0.02
2013-11-3,49.8,41.5,25.2,28.0,14.1,-6.0,85,38,10,29.64,29.41,7,2,21,0.00
2013-11-4,30.2,25.6,17.6,21.0,14.3,6.0,85,63,41,29.97,29.61,13,2,25,0.00
2013-11-5,24.7,21.0,17.5,17.0,8.4,3.0,88,60,40,30.29,29.93,17,3,27,0.00
2013-11-6,31.8,27.6,18.7,18.0,12.6,1.0,61,54,44,30.48,30.21,23,8,40,0.00
2013-11-7,46.5,37.8,30.0,21.0,18.7,17.0,64,48,33,30.48,29.97,9,1,21,0.00
2013-11-8,48.9,42.6,32.3,19.0,16.1,9.0,57,35,25,29.96,29.57,19,5,50,0.00
2013-11-9,50.6,40.2,30.0,21.0,18.5,16.0,62,43,28,30.16,29.95,13,2,20,0.00
2013-11-10,50.9,41.8,28.7,22.0,18.3,15.0,71,41,26,30.18,30.09,8,1,25,0.00
2013-11-11,50.6,37.7,24.3,27.0,21.2,16.0,95,57,27,30.51,30.14,7,1,20,0.00
2013-11-12,47.1,32.8,21.0,28.0,21.3,9.0,95,67,27,30.60,30.45,5,0,8,0.00
2013-11-13,49.9,42.6,32.5,18.0,12.7,5.0,44,30,20,30.45,29.93,18,2,20,0.00
2013-11-14,43.3,37.1,29.2,27.0,17.6,9.0,73,47,30,29.94,29.70,12,1,16,0.00
2013-11-15,46.9,35.2,28.3,28.0,16.6,6.0,84,50,23,29.69,29.42,8,1,21,0.00
2013-11-16,38.9,31.5,27.0,27.0,20.0,14.0,93,64,42,29.52,29.22,18,6,39,0.00
2013-11-17,34.9,29.4,21.8,22.0,19.1,16.0,92,67,49,30.16,29.48,34,7,40,0.00
2013-11-18,47.1,34.6,25.2,21.0,13.9,7.0,62,45,21,30.24,30.03,20,3,28,0.00
2013-11-19,43.8,36.6,24.8,29.0,20.3,8.0,79,53,32,30.03,29.74,20,1,33,0.00
2013-11-20,41.4,34.4,26.4,29.0,25.6,22.0,91,71,51,29.90,29.73,4,0,13,0.03
2013-11-21,26.2,11.7,2.4,24.0,8.8,-1.0,93,88,81,30.75,29.89,5,1,7,0.00
2013-11-22,31.7,21.9,12.7,27.0,15.8,10.0,91,79,42,30.83,30.69,4,0,5,0.00
2013-11-23,27.9,21.3,12.6,21.0,17.5,11.0,93,85,57,30.68,30.40,4,0,9,0.00
2013-11-24,41.4,29.8,20.9,34.0,27.3,19.0,96,90,69,30.39,30.02,2,0,3,0.08
2013-11-25,32.9,25.2,15.0,27.0,19.1,13.0,92,78,61,30.41,30.05,3,0,7,0.00
2013-11-26,35.7,25.9,13.9,20.0,15.8,12.0,93,68,46,30.57,30.38,10,1,20,0.00
2013-11-27,43.6,34.5,24.3,21.0,15.8,11.0,72,48,28,30.37,30.10,6,1,17,0.02
2013-11-28,43.1,29.0,18.9,24.0,17.6,14.0,83,64,36,30.24,30.15,2,0,5,0.00
2013-11-29,41.6,36.0,27.4,20.0,17.1,14.0,68,47,36,30.21,30.09,13,3,28,0.00
2013-11-30,38.5,34.1,30.5,18.0,13.2,8.0,56,43,29,30.17,30.11,9,2,24,0.00
2013-12-1,36.1,33.1,28.9,26.0,18.6,13.0,76,56,46,30.16,29.74,35,8,47,0.00
2013-12-2,38.7,34.9,30.9,27.0,23.6,19.0,85,64,47,29.83,29.55,25,12,39,0.00
2013-12-3,33.2,23.5,3.3,30.0,20.0,0.0,92,86,76,29.62,29.39,6,1,14,0.00
2013-12-4,2.8,-1.1,-7.7,-1.0,-5.3,-12.0,88,83,76,30.34,29.63,0,0,5,0.00
2013-12-5,10.0,-2.8,-17.1,5.0,-6.9,-21.0,87,82,74,30.44,30.23,0,0,0,0.00
2013-12-6,10.4,-4.4,-19.4,3.0,-9.6,-24.0,87,79,59,30.66,30.44,0,0,0,0.00
2013-12-7,19.6,9.0,0.2,10.0,3.7,-5.0,92,80,48,30.57,29.91,0,0,0,0.00
2013-12-8,12.6,8.6,1.8,9.0,1.5,-6.0,90,74,56,30.18,29.83,6,1,17,0.00
2013-12-9,11.0,3.1,-1.8,-1.0,-8.7,-13.0,79,59,47,30.58,30.17,27,7,47,0.00
2013-12-10,26.3,20.8,10.9,13.0,6.9,-1.0,70,55,48,30.44,30.23,28,12,54,0.00
2013-12-11,33.5,25.4,10.9,9.0,2.7,-10.0,85,41,15,30.43,30.28,14,4,32,0.00
2013-12-12,43.0,37.4,32.6,12.0,1.7,-10.0,33,22,15,30.40,29.86,14,4,23,0.00
2013-12-13,35.1,30.4,21.6,14.0,9.6,6.0,61,43,31,30.11,29.72,16,4,33,0.00
2013-12-14,26.6,22.6,19.1,13.0,9.4,7.0,64,57,50,30.41,30.12,17,5,30,0.00
2013-12-15,36.8,31.5,26.3,17.0,14.8,11.0,64,51,35,30.36,30.11,23,8,38,0.00
2013-12-16,41.9,38.4,36.0,20.0,13.4,5.0,51,37,25,30.18,30.02,32,14,44,0.00
2013-12-17,41.6,37.0,30.2,14.0,11.7,9.0,49,36,29,30.29,30.09,7,2,19,0.00
2013-12-18,47.4,41.0,31.2,16.0,10.1,7.0,49,29,19,30.08,29.64,31,3,33,0.00
2013-12-19,44.7,31.1,15.9,21.0,17.4,14.0,94,61,29,29.65,29.45,7,1,22,0.00
2013-12-20,31.4,23.9,11.4,24.0,16.4,7.0,95,74,50,29.74,29.64,8,1,19,0.00
2013-12-21,27.4,20.7,13.4,18.0,10.2,5.0,91,66,44,29.96,29.54,9,2,20,0.00
2013-12-22,21.9,18.5,14.0,15.0,9.4,5.0,86,68,56,30.30,29.96,21,4,37,0.00
2013-12-23,30.5,24.9,11.7,21.0,15.8,9.0,89,69,59,30.35,30.19,22,7,38,0.00
2013-12-24,34.3,26.1,17.1,26.0,16.8,4.0,88,68,52,30.30,30.06,19,6,41,0.00
2013-12-25,28.8,23.1,17.5,6.0,3.1,0.0,56,43,35,30.51,30.27,19,5,33,0.00
2013-12-26,35.2,30.2,26.5,16.0,7.0,-4.0,55,39,24,30.48,30.32,14,4,25,0.00
2013-12-27,42.2,34.7,26.6,22.0,18.9,15.0,77,54,40,30.33,30.07,6,1,13,0.00
2013-12-28,39.9,31.6,14.5,22.0,18.5,12.0,90,61,43,30.06,29.83,9,2,19,0.00
2013-12-29,25.3,18.8,8.8,15.0,8.6,1.0,92,68,35,30.24,30.06,27,4,42,0.00
2013-12-30,30.7,25.5,20.7,15.0,12.0,7.0,76,57,44,30.32,30.10,21,6,43,0.00
2013-12-31,36.4,32.5,29.2,22.0,18.2,12.0,69,56,44,30.19,29.86,24,7,45,0.00
2014-1-1,31.1,24.6,19.9,25.0,16.4,10.0,90,71,58,30.27,29.88,13,3,35,0.00
2014-1-2,37.4,31.1,22.5,17.0,8.1,-4.0,63,39,20,30.36,29.98,23,4,34,0.00